sensor_id;sensor_type;location;lat;lon;timestamp;temperature;humidity
16287;DHT22;8251;53.568;10.018;2023-07-22T00:00:58;19.20;87.40
16287;DHT22;8251;53.568;10.018;2023-07-22T00:03:25;19.20;87.40
16287;DHT22;8251;53.568;10.018;2023-07-22T00:06:05;19.10;87.20
16287;DHT22;8251;53.568;10.018;2023-07-22T00:08:32;19.20;87.20
16287;DHT22;8251;53.568;10.018;2023-07-22T00:11:01;19.10;87.50
16287;DHT22;8251;53.568;10.018;2023-07-22T00:13:28;19.10;87.50
16287;DHT22;8251;53.568;10.018;2023-07-22T00:15:54;19.10;87.50
16287;DHT22;8251;53.568;10.018;2023-07-22T00:18:22;19.10;87.50
16287;DHT22;8251;53.568;10.018;2023-07-22T00:20:49;19.10;87.50
16287;DHT22;8251;53.568;10.018;2023-07-22T00:23:17;19.10;87.50
16287;DHT22;8251;53.568;10.018;2023-07-22T00:25:44;19.00;87.50
16287;DHT22;8251;53.568;10.018;2023-07-22T00:28:12;19.00;87.30
16287;DHT22;8251;53.568;10.018;2023-07-22T00:30:39;19.00;87.30
16287;DHT22;8251;53.568;10.018;2023-07-22T00:33:07;19.00;87.30
16287;DHT22;8251;53.568;10.018;2023-07-22T00:35:34;19.00;87.30
16287;DHT22;8251;53.568;10.018;2023-07-22T00:38:01;18.90;87.00
16287;DHT22;8251;53.568;10.018;2023-07-22T00:40:29;18.90;87.10
16287;DHT22;8251;53.568;10.018;2023-07-22T00:42:57;18.90;87.30
16287;DHT22;8251;53.568;10.018;2023-07-22T00:45:25;18.90;87.50
16287;DHT22;8251;53.568;10.018;2023-07-22T00:47:52;18.80;87.60
16287;DHT22;8251;53.568;10.018;2023-07-22T00:50:19;18.80;87.70
16287;DHT22;8251;53.568;10.018;2023-07-22T00:52:46;18.80;87.60
16287;DHT22;8251;53.568;10.018;2023-07-22T00:55:15;18.80;87.70
16287;DHT22;8251;53.568;10.018;2023-07-22T00:57:42;18.80;87.80
16287;DHT22;8251;53.568;10.018;2023-07-22T01:00:10;18.80;88.30
16287;DHT22;8251;53.568;10.018;2023-07-22T01:02:39;18.80;88.20
16287;DHT22;8251;53.568;10.018;2023-07-22T01:05:07;18.80;88.10
16287;DHT22;8251;53.568;10.018;2023-07-22T01:07:36;18.80;88.10
16287;DHT22;8251;53.568;10.018;2023-07-22T01:10:04;18.80;88.00
16287;DHT22;8251;53.568;10.018;2023-07-22T01:12:32;18.70;88.10
16287;DHT22;8251;53.568;10.018;2023-07-22T01:14:58;18.70;88.10
16287;DHT22;8251;53.568;10.018;2023-07-22T01:17:26;18.70;88.10
16287;DHT22;8251;53.568;10.018;2023-07-22T01:19:55;18.60;88.10
16287;DHT22;8251;53.568;10.018;2023-07-22T01:22:22;18.70;88.20
16287;DHT22;8251;53.568;10.018;2023-07-22T01:24:50;18.70;88.10
16287;DHT22;8251;53.568;10.018;2023-07-22T01:27:17;18.70;88.10
16287;DHT22;8251;53.568;10.018;2023-07-22T01:29:45;18.60;87.90
16287;DHT22;8251;53.568;10.018;2023-07-22T01:32:11;18.60;88.10
16287;DHT22;8251;53.568;10.018;2023-07-22T01:34:38;18.60;88.10
16287;DHT22;8251;53.568;10.018;2023-07-22T01:37:05;18.60;88.10
16287;DHT22;8251;53.568;10.018;2023-07-22T01:39:32;18.60;88.10
16287;DHT22;8251;53.568;10.018;2023-07-22T01:42:01;18.50;88.10
16287;DHT22;8251;53.568;10.018;2023-07-22T01:44:28;18.50;88.10
16287;DHT22;8251;53.568;10.018;2023-07-22T01:46:55;18.50;88.10
16287;DHT22;8251;53.568;10.018;2023-07-22T01:49:22;18.50;87.70
16287;DHT22;8251;53.568;10.018;2023-07-22T01:51:50;18.40;87.40
16287;DHT22;8251;53.568;10.018;2023-07-22T01:54:16;18.40;87.50
16287;DHT22;8251;53.568;10.018;2023-07-22T01:56:43;18.40;87.50
16287;DHT22;8251;53.568;10.018;2023-07-22T01:59:11;18.40;87.50
16287;DHT22;8251;53.568;10.018;2023-07-22T02:01:38;18.30;87.50
16287;DHT22;8251;53.568;10.018;2023-07-22T02:04:05;18.30;87.40
16287;DHT22;8251;53.568;10.018;2023-07-22T02:06:33;18.30;87.50
16287;DHT22;8251;53.568;10.018;2023-07-22T02:09:00;18.30;87.40
16287;DHT22;8251;53.568;10.018;2023-07-22T02:11:33;18.30;87.60
16287;DHT22;8251;53.568;10.018;2023-07-22T02:14:00;18.30;87.40
16287;DHT22;8251;53.568;10.018;2023-07-22T02:16:28;18.30;87.40
16287;DHT22;8251;53.568;10.018;2023-07-22T02:18:54;18.30;87.40
16287;DHT22;8251;53.568;10.018;2023-07-22T02:21:23;18.20;87.40
16287;DHT22;8251;53.568;10.018;2023-07-22T02:23:50;18.20;87.50
16287;DHT22;8251;53.568;10.018;2023-07-22T02:26:16;18.20;87.50
16287;DHT22;8251;53.568;10.018;2023-07-22T02:28:43;18.20;87.40
16287;DHT22;8251;53.568;10.018;2023-07-22T02:31:12;18.20;87.60
16287;DHT22;8251;53.568;10.018;2023-07-22T02:33:40;18.20;87.70
16287;DHT22;8251;53.568;10.018;2023-07-22T02:36:07;18.20;87.80
16287;DHT22;8251;53.568;10.018;2023-07-22T02:38:34;18.20;87.90
16287;DHT22;8251;53.568;10.018;2023-07-22T02:41:02;18.20;87.80
16287;DHT22;8251;53.568;10.018;2023-07-22T02:43:31;18.20;87.70
16287;DHT22;8251;53.568;10.018;2023-07-22T02:46:00;18.10;87.50
16287;DHT22;8251;53.568;10.018;2023-07-22T02:48:28;18.10;87.50
16287;DHT22;8251;53.568;10.018;2023-07-22T02:51:01;18.10;87.70
16287;DHT22;8251;53.568;10.018;2023-07-22T02:53:28;18.10;87.90
16287;DHT22;8251;53.568;10.018;2023-07-22T02:55:55;18.00;88.60
16287;DHT22;8251;53.568;10.018;2023-07-22T02:58:21;18.00;87.80
16287;DHT22;8251;53.568;10.018;2023-07-22T03:00:48;18.00;87.80
16287;DHT22;8251;53.568;10.018;2023-07-22T03:03:15;18.00;87.80
16287;DHT22;8251;53.568;10.018;2023-07-22T03:05:42;18.00;87.90
16287;DHT22;8251;53.568;10.018;2023-07-22T03:08:11;18.00;87.80
16287;DHT22;8251;53.568;10.018;2023-07-22T03:10:37;18.00;87.80
16287;DHT22;8251;53.568;10.018;2023-07-22T03:13:04;18.00;88.00
16287;DHT22;8251;53.568;10.018;2023-07-22T03:15:33;18.00;88.00
16287;DHT22;8251;53.568;10.018;2023-07-22T03:18:00;18.00;88.20
16287;DHT22;8251;53.568;10.018;2023-07-22T03:20:27;18.00;88.20
16287;DHT22;8251;53.568;10.018;2023-07-22T03:22:53;17.90;88.20
16287;DHT22;8251;53.568;10.018;2023-07-22T03:25:22;17.90;88.20
16287;DHT22;8251;53.568;10.018;2023-07-22T03:27:49;17.90;87.90
16287;DHT22;8251;53.568;10.018;2023-07-22T03:30:17;17.90;88.00
16287;DHT22;8251;53.568;10.018;2023-07-22T03:32:45;17.90;88.10
16287;DHT22;8251;53.568;10.018;2023-07-22T03:35:13;17.90;88.00
16287;DHT22;8251;53.568;10.018;2023-07-22T03:37:40;17.80;88.40
16287;DHT22;8251;53.568;10.018;2023-07-22T03:40:08;17.80;88.20
16287;DHT22;8251;53.568;10.018;2023-07-22T03:42:38;17.90;88.30
16287;DHT22;8251;53.568;10.018;2023-07-22T03:45:07;17.80;88.30
16287;DHT22;8251;53.568;10.018;2023-07-22T03:47:34;17.80;88.70
16287;DHT22;8251;53.568;10.018;2023-07-22T03:50:01;17.80;88.70
16287;DHT22;8251;53.568;10.018;2023-07-22T03:52:28;17.80;89.10
16287;DHT22;8251;53.568;10.018;2023-07-22T03:54:55;17.80;89.10
16287;DHT22;8251;53.568;10.018;2023-07-22T03:57:25;17.80;89.00
16287;DHT22;8251;53.568;10.018;2023-07-22T03:59:53;17.80;89.80
16287;DHT22;8251;53.568;10.018;2023-07-22T04:02:20;17.80;89.20
16287;DHT22;8251;53.568;10.018;2023-07-22T04:04:47;17.80;89.00
16287;DHT22;8251;53.568;10.018;2023-07-22T04:07:14;17.80;89.10
16287;DHT22;8251;53.568;10.018;2023-07-22T04:09:41;17.80;89.20
16287;DHT22;8251;53.568;10.018;2023-07-22T04:12:08;17.80;89.20
16287;DHT22;8251;53.568;10.018;2023-07-22T04:14:35;17.80;89.00
16287;DHT22;8251;53.568;10.018;2023-07-22T04:17:03;17.80;88.60
16287;DHT22;8251;53.568;10.018;2023-07-22T04:19:31;17.70;88.60
16287;DHT22;8251;53.568;10.018;2023-07-22T04:21:57;17.70;88.80
16287;DHT22;8251;53.568;10.018;2023-07-22T04:24:24;17.80;89.30
16287;DHT22;8251;53.568;10.018;2023-07-22T04:26:51;17.80;89.40
16287;DHT22;8251;53.568;10.018;2023-07-22T04:29:18;17.80;89.40
16287;DHT22;8251;53.568;10.018;2023-07-22T04:31:45;17.80;89.40
16287;DHT22;8251;53.568;10.018;2023-07-22T04:34:13;17.80;89.10
16287;DHT22;8251;53.568;10.018;2023-07-22T04:36:41;17.80;89.10
16287;DHT22;8251;53.568;10.018;2023-07-22T04:39:08;17.80;89.10
16287;DHT22;8251;53.568;10.018;2023-07-22T04:41:35;17.80;89.10
16287;DHT22;8251;53.568;10.018;2023-07-22T04:44:02;17.80;89.10
16287;DHT22;8251;53.568;10.018;2023-07-22T04:46:29;17.80;89.10
16287;DHT22;8251;53.568;10.018;2023-07-22T04:48:56;17.90;89.00
16287;DHT22;8251;53.568;10.018;2023-07-22T04:51:25;17.90;89.20
16287;DHT22;8251;53.568;10.018;2023-07-22T04:53:52;17.90;89.10
16287;DHT22;8251;53.568;10.018;2023-07-22T04:56:19;17.90;89.00
16287;DHT22;8251;53.568;10.018;2023-07-22T04:58:46;17.90;88.90
16287;DHT22;8251;53.568;10.018;2023-07-22T05:01:15;17.90;89.00
16287;DHT22;8251;53.568;10.018;2023-07-22T05:03:42;18.00;89.00
16287;DHT22;8251;53.568;10.018;2023-07-22T05:06:09;18.00;88.60
16287;DHT22;8251;53.568;10.018;2023-07-22T05:08:37;18.00;88.60
16287;DHT22;8251;53.568;10.018;2023-07-22T05:11:04;18.00;88.60
16287;DHT22;8251;53.568;10.018;2023-07-22T05:13:31;18.00;88.60
16287;DHT22;8251;53.568;10.018;2023-07-22T05:15:58;18.00;88.60
16287;DHT22;8251;53.568;10.018;2023-07-22T05:18:25;18.00;88.40
16287;DHT22;8251;53.568;10.018;2023-07-22T05:20:51;18.10;88.50
16287;DHT22;8251;53.568;10.018;2023-07-22T05:23:18;18.10;88.40
16287;DHT22;8251;53.568;10.018;2023-07-22T05:25:52;18.10;88.40
16287;DHT22;8251;53.568;10.018;2023-07-22T05:28:18;18.10;88.00
16287;DHT22;8251;53.568;10.018;2023-07-22T05:30:45;18.10;88.00
16287;DHT22;8251;53.568;10.018;2023-07-22T05:33:12;18.20;88.00
16287;DHT22;8251;53.568;10.018;2023-07-22T05:35:39;18.20;88.20
16287;DHT22;8251;53.568;10.018;2023-07-22T05:38:06;18.20;88.20
16287;DHT22;8251;53.568;10.018;2023-07-22T05:40:33;18.20;88.20
16287;DHT22;8251;53.568;10.018;2023-07-22T05:43:01;18.30;88.20
16287;DHT22;8251;53.568;10.018;2023-07-22T05:45:28;18.30;88.00
16287;DHT22;8251;53.568;10.018;2023-07-22T05:47:55;18.30;87.80
16287;DHT22;8251;53.568;10.018;2023-07-22T05:50:21;18.30;88.00
16287;DHT22;8251;53.568;10.018;2023-07-22T05:52:48;18.40;87.50
16287;DHT22;8251;53.568;10.018;2023-07-22T05:55:15;18.40;87.50
16287;DHT22;8251;53.568;10.018;2023-07-22T05:57:42;18.30;87.40
16287;DHT22;8251;53.568;10.018;2023-07-22T06:00:12;18.40;87.50
16287;DHT22;8251;53.568;10.018;2023-07-22T06:02:39;18.40;87.70
16287;DHT22;8251;53.568;10.018;2023-07-22T06:05:07;18.40;87.60
16287;DHT22;8251;53.568;10.018;2023-07-22T06:07:34;18.50;87.60
16287;DHT22;8251;53.568;10.018;2023-07-22T06:10:01;18.50;87.60
16287;DHT22;8251;53.568;10.018;2023-07-22T06:12:27;18.60;87.80
16287;DHT22;8251;53.568;10.018;2023-07-22T06:14:54;18.60;87.40
16287;DHT22;8251;53.568;10.018;2023-07-22T06:17:22;18.60;87.30
16287;DHT22;8251;53.568;10.018;2023-07-22T06:19:50;18.70;87.10
16287;DHT22;8251;53.568;10.018;2023-07-22T06:22:18;18.70;86.90
16287;DHT22;8251;53.568;10.018;2023-07-22T06:24:45;18.70;87.50
16287;DHT22;8251;53.568;10.018;2023-07-22T06:27:12;18.80;86.60
16287;DHT22;8251;53.568;10.018;2023-07-22T06:29:39;18.80;86.50
16287;DHT22;8251;53.568;10.018;2023-07-22T06:32:06;18.80;86.00
16287;DHT22;8251;53.568;10.018;2023-07-22T06:34:35;18.90;85.60
16287;DHT22;8251;53.568;10.018;2023-07-22T06:37:02;18.90;85.80
16287;DHT22;8251;53.568;10.018;2023-07-22T06:39:30;19.00;86.00
16287;DHT22;8251;53.568;10.018;2023-07-22T06:41:57;19.00;85.80
16287;DHT22;8251;53.568;10.018;2023-07-22T06:44:23;19.20;85.60
16287;DHT22;8251;53.568;10.018;2023-07-22T06:46:54;19.40;84.70
16287;DHT22;8251;53.568;10.018;2023-07-22T06:49:30;19.70;83.80
16287;DHT22;8251;53.568;10.018;2023-07-22T06:52:01;19.90;83.20
16287;DHT22;8251;53.568;10.018;2023-07-22T06:54:28;20.10;82.50
16287;DHT22;8251;53.568;10.018;2023-07-22T06:56:55;20.40;81.80
16287;DHT22;8251;53.568;10.018;2023-07-22T06:59:22;20.50;81.10
16287;DHT22;8251;53.568;10.018;2023-07-22T07:01:49;20.50;80.20
16287;DHT22;8251;53.568;10.018;2023-07-22T07:04:16;20.40;79.60
16287;DHT22;8251;53.568;10.018;2023-07-22T07:06:43;20.40;79.80
16287;DHT22;8251;53.568;10.018;2023-07-22T07:09:12;20.30;80.10
16287;DHT22;8251;53.568;10.018;2023-07-22T07:11:39;20.30;80.30
16287;DHT22;8251;53.568;10.018;2023-07-22T07:14:06;20.40;80.00
16287;DHT22;8251;53.568;10.018;2023-07-22T07:16:33;20.40;80.00
16287;DHT22;8251;53.568;10.018;2023-07-22T07:19:01;20.40;80.10
16287;DHT22;8251;53.568;10.018;2023-07-22T07:21:28;20.50;80.30
16287;DHT22;8251;53.568;10.018;2023-07-22T07:23:55;20.50;79.40
16287;DHT22;8251;53.568;10.018;2023-07-22T07:26:23;20.50;79.50
16287;DHT22;8251;53.568;10.018;2023-07-22T07:28:50;20.60;79.30
16287;DHT22;8251;53.568;10.018;2023-07-22T07:31:17;20.60;79.40
16287;DHT22;8251;53.568;10.018;2023-07-22T07:33:44;20.70;78.90
16287;DHT22;8251;53.568;10.018;2023-07-22T07:36:12;20.70;78.50
16287;DHT22;8251;53.568;10.018;2023-07-22T07:38:38;20.80;78.40
16287;DHT22;8251;53.568;10.018;2023-07-22T07:41:09;20.80;78.20
16287;DHT22;8251;53.568;10.018;2023-07-22T07:43:51;20.80;78.10
16287;DHT22;8251;53.568;10.018;2023-07-22T07:46:26;20.80;77.80
16287;DHT22;8251;53.568;10.018;2023-07-22T07:48:58;20.90;77.00
16287;DHT22;8251;53.568;10.018;2023-07-22T07:51:33;20.90;76.90
16287;DHT22;8251;53.568;10.018;2023-07-22T07:54:06;20.90;77.10
16287;DHT22;8251;53.568;10.018;2023-07-22T07:56:36;21.00;77.80
16287;DHT22;8251;53.568;10.018;2023-07-22T07:59:04;21.00;76.80
16287;DHT22;8251;53.568;10.018;2023-07-22T08:01:31;21.00;76.30
16287;DHT22;8251;53.568;10.018;2023-07-22T08:03:58;21.10;76.50
16287;DHT22;8251;53.568;10.018;2023-07-22T08:06:25;21.10;76.20
16287;DHT22;8251;53.568;10.018;2023-07-22T08:08:54;21.30;75.40
16287;DHT22;8251;53.568;10.018;2023-07-22T08:11:22;21.40;74.70
16287;DHT22;8251;53.568;10.018;2023-07-22T08:13:49;21.60;74.30
16287;DHT22;8251;53.568;10.018;2023-07-22T08:16:18;21.80;73.70
16287;DHT22;8251;53.568;10.018;2023-07-22T08:18:45;22.00;73.30
16287;DHT22;8251;53.568;10.018;2023-07-22T08:21:13;22.40;72.00
16287;DHT22;8251;53.568;10.018;2023-07-22T08:23:39;22.80;70.10
16287;DHT22;8251;53.568;10.018;2023-07-22T08:26:07;23.10;69.30
16287;DHT22;8251;53.568;10.018;2023-07-22T08:28:34;23.40;68.30
16287;DHT22;8251;53.568;10.018;2023-07-22T08:31:01;23.50;66.90
16287;DHT22;8251;53.568;10.018;2023-07-22T08:33:31;23.60;66.50
16287;DHT22;8251;53.568;10.018;2023-07-22T08:35:58;23.60;66.30
16287;DHT22;8251;53.568;10.018;2023-07-22T08:38:25;23.90;65.40
16287;DHT22;8251;53.568;10.018;2023-07-22T08:40:52;24.20;63.50
16287;DHT22;8251;53.568;10.018;2023-07-22T08:43:20;24.50;62.30
16287;DHT22;8251;53.568;10.018;2023-07-22T08:45:48;25.10;60.50
16287;DHT22;8251;53.568;10.018;2023-07-22T08:48:17;25.80;57.70
16287;DHT22;8251;53.568;10.018;2023-07-22T08:50:49;26.50;56.80
16287;DHT22;8251;53.568;10.018;2023-07-22T08:53:17;27.20;54.90
16287;DHT22;8251;53.568;10.018;2023-07-22T08:55:45;27.50;53.70
16287;DHT22;8251;53.568;10.018;2023-07-22T08:58:13;27.80;52.50
16287;DHT22;8251;53.568;10.018;2023-07-22T09:00:40;28.10;52.10
16287;DHT22;8251;53.568;10.018;2023-07-22T09:03:08;28.30;51.20
16287;DHT22;8251;53.568;10.018;2023-07-22T09:05:36;28.50;50.30
16287;DHT22;8251;53.568;10.018;2023-07-22T09:08:07;28.50;49.60
16287;DHT22;8251;53.568;10.018;2023-07-22T09:10:35;28.50;49.90
16287;DHT22;8251;53.568;10.018;2023-07-22T09:13:04;28.50;50.10
16287;DHT22;8251;53.568;10.018;2023-07-22T09:15:32;28.30;49.40
16287;DHT22;8251;53.568;10.018;2023-07-22T09:18:01;28.20;49.40
16287;DHT22;8251;53.568;10.018;2023-07-22T09:20:28;28.10;49.80
16287;DHT22;8251;53.568;10.018;2023-07-22T09:22:55;28.10;49.90
16287;DHT22;8251;53.568;10.018;2023-07-22T09:25:24;28.10;50.00
16287;DHT22;8251;53.568;10.018;2023-07-22T09:27:54;28.30;50.10
16287;DHT22;8251;53.568;10.018;2023-07-22T09:30:23;28.20;50.30
16287;DHT22;8251;53.568;10.018;2023-07-22T09:32:50;28.00;50.60
16287;DHT22;8251;53.568;10.018;2023-07-22T09:35:17;27.70;50.70
16287;DHT22;8251;53.568;10.018;2023-07-22T09:37:44;27.60;51.10
16287;DHT22;8251;53.568;10.018;2023-07-22T09:40:14;27.70;51.40
16287;DHT22;8251;53.568;10.018;2023-07-22T09:42:45;27.80;51.00
16287;DHT22;8251;53.568;10.018;2023-07-22T09:45:16;27.80;50.80
16287;DHT22;8251;53.568;10.018;2023-07-22T09:47:45;27.70;49.50
16287;DHT22;8251;53.568;10.018;2023-07-22T09:50:16;27.40;50.10
16287;DHT22;8251;53.568;10.018;2023-07-22T09:52:45;27.00;50.40
16287;DHT22;8251;53.568;10.018;2023-07-22T09:55:14;26.80;50.30
16287;DHT22;8251;53.568;10.018;2023-07-22T09:57:45;27.00;50.40
16287;DHT22;8251;53.568;10.018;2023-07-22T10:00:15;27.10;50.00
16287;DHT22;8251;53.568;10.018;2023-07-22T10:02:43;27.20;50.40
16287;DHT22;8251;53.568;10.018;2023-07-22T10:05:15;27.00;49.40
16287;DHT22;8251;53.568;10.018;2023-07-22T10:07:46;26.80;50.10
16287;DHT22;8251;53.568;10.018;2023-07-22T10:10:15;26.60;50.90
16287;DHT22;8251;53.568;10.018;2023-07-22T10:12:44;26.50;51.10
16287;DHT22;8251;53.568;10.018;2023-07-22T10:15:13;26.20;51.80
16287;DHT22;8251;53.568;10.018;2023-07-22T10:17:41;26.00;52.00
16287;DHT22;8251;53.568;10.018;2023-07-22T10:20:10;25.80;51.80
16287;DHT22;8251;53.568;10.018;2023-07-22T10:22:42;25.80;52.80
16287;DHT22;8251;53.568;10.018;2023-07-22T10:25:12;25.90;53.00
16287;DHT22;8251;53.568;10.018;2023-07-22T10:27:42;26.00;52.10
16287;DHT22;8251;53.568;10.018;2023-07-22T10:30:13;26.30;52.20
16287;DHT22;8251;53.568;10.018;2023-07-22T10:32:42;26.80;50.50
16287;DHT22;8251;53.568;10.018;2023-07-22T10:35:10;27.40;50.50
16287;DHT22;8251;53.568;10.018;2023-07-22T10:37:39;28.00;49.50
16287;DHT22;8251;53.568;10.018;2023-07-22T10:40:23;28.20;46.70
16287;DHT22;8251;53.568;10.018;2023-07-22T10:42:53;28.60;47.40
16287;DHT22;8251;53.568;10.018;2023-07-22T10:45:27;28.60;46.90
16287;DHT22;8251;53.568;10.018;2023-07-22T10:48:06;29.00;46.80
16287;DHT22;8251;53.568;10.018;2023-07-22T10:50:41;29.40;45.90
16287;DHT22;8251;53.568;10.018;2023-07-22T10:53:12;29.60;45.60
16287;DHT22;8251;53.568;10.018;2023-07-22T10:56:10;29.80;45.60
16287;DHT22;8251;53.568;10.018;2023-07-22T10:58:58;30.00;44.70
16287;DHT22;8251;53.568;10.018;2023-07-22T11:01:33;29.70;43.40
16287;DHT22;8251;53.568;10.018;2023-07-22T11:04:14;29.30;44.00
16287;DHT22;8251;53.568;10.018;2023-07-22T11:06:55;28.90;45.30
16287;DHT22;8251;53.568;10.018;2023-07-22T11:09:53;28.80;45.70
16287;DHT22;8251;53.568;10.018;2023-07-22T11:12:21;28.80;44.60
16287;DHT22;8251;53.568;10.018;2023-07-22T11:14:52;28.60;45.00
16287;DHT22;8251;53.568;10.018;2023-07-22T11:17:28;28.40;46.00
16287;DHT22;8251;53.568;10.018;2023-07-22T11:19:55;28.20;46.00
16287;DHT22;8251;53.568;10.018;2023-07-22T11:22:22;28.00;46.70
16287;DHT22;8251;53.568;10.018;2023-07-22T11:24:48;27.90;46.90
16287;DHT22;8251;53.568;10.018;2023-07-22T11:27:15;27.80;47.20
16287;DHT22;8251;53.568;10.018;2023-07-22T11:29:45;27.70;44.80
16287;DHT22;8251;53.568;10.018;2023-07-22T11:32:18;27.50;46.50
16287;DHT22;8251;53.568;10.018;2023-07-22T11:34:52;27.50;47.80
16287;DHT22;8251;53.568;10.018;2023-07-22T11:37:20;27.50;47.60
16287;DHT22;8251;53.568;10.018;2023-07-22T11:39:50;27.60;48.50
16287;DHT22;8251;53.568;10.018;2023-07-22T11:42:18;27.60;48.30
16287;DHT22;8251;53.568;10.018;2023-07-22T11:44:47;27.60;48.10
16287;DHT22;8251;53.568;10.018;2023-07-22T11:47:17;27.50;47.60
16287;DHT22;8251;53.568;10.018;2023-07-22T11:49:47;27.40;48.70
16287;DHT22;8251;53.568;10.018;2023-07-22T11:52:20;27.20;48.80
16287;DHT22;8251;53.568;10.018;2023-07-22T11:54:49;27.10;48.60
16287;DHT22;8251;53.568;10.018;2023-07-22T11:57:17;26.80;48.70
16287;DHT22;8251;53.568;10.018;2023-07-22T11:59:45;26.80;49.70
16287;DHT22;8251;53.568;10.018;2023-07-22T12:02:13;26.80;49.90
16287;DHT22;8251;53.568;10.018;2023-07-22T12:04:40;26.80;50.10
16287;DHT22;8251;53.568;10.018;2023-07-22T12:07:28;26.80;50.30
16287;DHT22;8251;53.568;10.018;2023-07-22T12:10:02;26.70;49.90
16287;DHT22;8251;53.568;10.018;2023-07-22T12:12:34;26.50;50.00
16287;DHT22;8251;53.568;10.018;2023-07-22T12:15:09;26.40;50.60
16287;DHT22;8251;53.568;10.018;2023-07-22T12:17:51;26.30;51.00
16287;DHT22;8251;53.568;10.018;2023-07-22T12:20:26;26.40;51.10
16287;DHT22;8251;53.568;10.018;2023-07-22T12:22:55;26.50;51.70
16287;DHT22;8251;53.568;10.018;2023-07-22T12:25:22;26.70;50.30
16287;DHT22;8251;53.568;10.018;2023-07-22T12:27:49;26.70;50.30
16287;DHT22;8251;53.568;10.018;2023-07-22T12:30:16;26.60;50.20
16287;DHT22;8251;53.568;10.018;2023-07-22T12:32:43;26.60;50.50
16287;DHT22;8251;53.568;10.018;2023-07-22T12:35:10;26.50;51.80
16287;DHT22;8251;53.568;10.018;2023-07-22T12:37:39;26.30;51.70
16287;DHT22;8251;53.568;10.018;2023-07-22T12:40:08;26.20;52.00
16287;DHT22;8251;53.568;10.018;2023-07-22T12:42:36;26.10;52.00
16287;DHT22;8251;53.568;10.018;2023-07-22T12:45:03;26.00;51.90
16287;DHT22;8251;53.568;10.018;2023-07-22T12:47:30;25.80;52.20
16287;DHT22;8251;53.568;10.018;2023-07-22T12:49:57;25.60;52.40
16287;DHT22;8251;53.568;10.018;2023-07-22T12:52:24;25.50;52.70
16287;DHT22;8251;53.568;10.018;2023-07-22T12:54:51;25.30;53.40
16287;DHT22;8251;53.568;10.018;2023-07-22T12:57:19;25.10;54.40
16287;DHT22;8251;53.568;10.018;2023-07-22T12:59:46;25.00;54.50
16287;DHT22;8251;53.568;10.018;2023-07-22T13:02:13;24.90;54.40
16287;DHT22;8251;53.568;10.018;2023-07-22T13:04:40;24.70;55.20
16287;DHT22;8251;53.568;10.018;2023-07-22T13:07:06;24.60;55.90
16287;DHT22;8251;53.568;10.018;2023-07-22T13:09:33;24.60;56.50
16287;DHT22;8251;53.568;10.018;2023-07-22T13:12:03;24.40;57.40
16287;DHT22;8251;53.568;10.018;2023-07-22T13:14:39;24.30;57.70
16287;DHT22;8251;53.568;10.018;2023-07-22T13:17:10;24.20;58.80
16287;DHT22;8251;53.568;10.018;2023-07-22T13:19:37;24.20;59.50
16287;DHT22;8251;53.568;10.018;2023-07-22T13:22:04;24.10;59.80
16287;DHT22;8251;53.568;10.018;2023-07-22T13:24:31;24.00;60.60
16287;DHT22;8251;53.568;10.018;2023-07-22T13:26:57;24.00;61.30
16287;DHT22;8251;53.568;10.018;2023-07-22T13:29:24;23.90;61.90
16287;DHT22;8251;53.568;10.018;2023-07-22T13:31:52;23.80;62.30
16287;DHT22;8251;53.568;10.018;2023-07-22T13:34:19;23.70;62.90
16287;DHT22;8251;53.568;10.018;2023-07-22T13:36:46;23.60;64.80
16287;DHT22;8251;53.568;10.018;2023-07-22T13:39:13;23.40;66.70
16287;DHT22;8251;53.568;10.018;2023-07-22T13:41:39;23.30;68.60
16287;DHT22;8251;53.568;10.018;2023-07-22T13:44:07;23.20;69.30
16287;DHT22;8251;53.568;10.018;2023-07-22T13:46:34;23.10;69.90
16287;DHT22;8251;53.568;10.018;2023-07-22T13:49:02;23.00;70.40
16287;DHT22;8251;53.568;10.018;2023-07-22T13:51:29;22.90;71.70
16287;DHT22;8251;53.568;10.018;2023-07-22T13:53:56;22.80;72.70
16287;DHT22;8251;53.568;10.018;2023-07-22T13:56:24;22.80;74.00
16287;DHT22;8251;53.568;10.018;2023-07-22T13:58:50;22.80;74.90
16287;DHT22;8251;53.568;10.018;2023-07-22T14:01:18;22.70;75.50
16287;DHT22;8251;53.568;10.018;2023-07-22T14:03:44;22.70;76.50
16287;DHT22;8251;53.568;10.018;2023-07-22T14:06:12;22.70;75.40
16287;DHT22;8251;53.568;10.018;2023-07-22T14:08:39;22.70;75.00
16287;DHT22;8251;53.568;10.018;2023-07-22T14:11:08;22.70;76.10
16287;DHT22;8251;53.568;10.018;2023-07-22T14:13:34;22.70;76.70
16287;DHT22;8251;53.568;10.018;2023-07-22T14:16:02;22.70;76.70
16287;DHT22;8251;53.568;10.018;2023-07-22T14:18:29;22.70;77.10
16287;DHT22;8251;53.568;10.018;2023-07-22T14:20:56;22.70;77.50
16287;DHT22;8251;53.568;10.018;2023-07-22T14:23:24;22.70;77.90
16287;DHT22;8251;53.568;10.018;2023-07-22T14:25:50;22.70;78.10
16287;DHT22;8251;53.568;10.018;2023-07-22T14:28:17;22.70;78.70
16287;DHT22;8251;53.568;10.018;2023-07-22T14:30:46;22.70;79.00
16287;DHT22;8251;53.568;10.018;2023-07-22T14:33:12;22.80;78.20
16287;DHT22;8251;53.568;10.018;2023-07-22T14:35:39;22.80;77.90
16287;DHT22;8251;53.568;10.018;2023-07-22T14:38:06;22.80;76.80
16287;DHT22;8251;53.568;10.018;2023-07-22T14:40:34;22.80;76.50
16287;DHT22;8251;53.568;10.018;2023-07-22T14:43:00;22.70;76.10
16287;DHT22;8251;53.568;10.018;2023-07-22T14:45:27;22.60;74.80
16287;DHT22;8251;53.568;10.018;2023-07-22T14:47:55;22.50;74.10
16287;DHT22;8251;53.568;10.018;2023-07-22T14:50:22;22.50;74.20
16287;DHT22;8251;53.568;10.018;2023-07-22T14:52:48;22.40;74.30
16287;DHT22;8251;53.568;10.018;2023-07-22T14:55:15;22.40;74.70
16287;DHT22;8251;53.568;10.018;2023-07-22T14:57:43;22.40;76.10
16287;DHT22;8251;53.568;10.018;2023-07-22T15:00:12;22.30;75.30
16287;DHT22;8251;53.568;10.018;2023-07-22T15:02:39;22.30;74.90
16287;DHT22;8251;53.568;10.018;2023-07-22T15:05:06;22.30;74.20
16287;DHT22;8251;53.568;10.018;2023-07-22T15:07:33;22.30;74.10
16287;DHT22;8251;53.568;10.018;2023-07-22T15:10:00;22.20;74.10
16287;DHT22;8251;53.568;10.018;2023-07-22T15:12:27;22.20;74.10
16287;DHT22;8251;53.568;10.018;2023-07-22T15:14:56;22.20;74.30
16287;DHT22;8251;53.568;10.018;2023-07-22T15:17:22;22.20;74.10
16287;DHT22;8251;53.568;10.018;2023-07-22T15:19:49;22.20;73.70
16287;DHT22;8251;53.568;10.018;2023-07-22T15:22:16;22.20;73.90
16287;DHT22;8251;53.568;10.018;2023-07-22T15:24:42;22.10;74.40
16287;DHT22;8251;53.568;10.018;2023-07-22T15:27:09;22.10;74.70
16287;DHT22;8251;53.568;10.018;2023-07-22T15:29:36;22.10;74.50
16287;DHT22;8251;53.568;10.018;2023-07-22T15:32:05;22.10;74.90
16287;DHT22;8251;53.568;10.018;2023-07-22T15:34:32;22.10;75.30
16287;DHT22;8251;53.568;10.018;2023-07-22T15:36:59;22.10;75.10